Time;durP1;ratioP1;P1;durP2;ratioP2;P2;SDS_P1;SDS_P2;PMS_P1;PMS_P2;Temp;Humidity;BMP_temperature;BMP_pressure;BME280_temperature;BME280_humidity;BME280_pressure;Samples;Min_cycle;Max_cycle;Signal;HPM_P1;HPM_P2
2021/03/01 00:00:49;;;;;;;20.97;10.20;;;2.80;99.90;;;;;;5152727;28;20569;-72
2021/03/01 00:03:20;;;;;;;19.33;9.83;;;2.80;99.90;;;;;;5152515;28;20235;-69
2021/03/01 00:05:52;;;;;;;20.73;10.43;;;2.80;99.90;;;;;;5152564;28;20292;-71
2021/03/01 00:08:23;;;;;;;21.10;10.40;;;2.80;99.90;;;;;;5135256;28;20604;-71
2021/03/01 00:10:55;;;;;;;23.87;9.97;;;2.80;99.90;;;;;;5152408;28;20738;-70
2021/03/01 00:13:27;;;;;;;21.63;9.70;;;2.80;99.90;;;;;;5152790;28;20193;-70
2021/03/01 00:15:59;;;;;;;21.60;9.93;;;2.80;99.90;;;;;;5148830;28;20207;-71
2021/03/01 00:18:30;;;;;;;24.50;10.30;;;2.80;99.90;;;;;;5149308;28;20196;-71
2021/03/01 00:21:02;;;;;;;24.67;10.33;;;2.80;99.90;;;;;;5149552;28;20567;-70
2021/03/01 00:27:29;;;;;;;17.80;9.07;;;2.80;99.90;;;;;;5149617;28;20172;-71
2021/03/01 00:30:01;;;;;;;23.83;9.83;;;2.80;99.90;;;;;;5149468;28;20580;-70
2021/03/01 00:32:32;;;;;;;22.37;10.70;;;2.80;99.90;;;;;;5132999;28;20196;-71
2021/03/01 00:35:06;;;;;;;21.80;10.23;;;2.80;99.90;;;;;;5150237;28;20283;-71
2021/03/01 00:37:38;;;;;;;20.10;9.83;;;2.80;99.90;;;;;;5150765;28;20196;-71
2021/03/01 00:44:06;;;;;;;18.53;9.50;;;2.80;99.90;;;;;;5153594;28;20556;-71
2021/03/01 00:46:40;;;;;;;20.17;10.30;;;2.80;99.90;;;;;;5153815;28;20196;-70
2021/03/01 00:49:12;;;;;;;23.00;10.50;;;2.80;99.90;;;;;;5134925;28;20200;-72
2021/03/01 00:51:43;;;;;;;17.97;9.70;;;2.70;99.90;;;;;;5151546;28;20228;-70
2021/03/01 00:54:15;;;;;;;19.03;9.93;;;2.70;99.90;;;;;;5150753;28;20288;-71
2021/03/01 00:56:47;;;;;;;17.93;9.27;;;2.70;99.90;;;;;;5149623;28;20206;-74
2021/03/01 00:59:19;;;;;;;19.07;8.40;;;2.70;99.90;;;;;;5150238;28;20662;-70
2021/03/01 01:01:51;;;;;;;18.73;9.10;;;2.70;99.90;;;;;;5149357;28;20201;-71
2021/03/01 01:04:23;;;;;;;21.63;9.73;;;2.70;99.90;;;;;;5149444;28;20201;-70
2021/03/01 01:06:55;;;;;;;19.33;9.93;;;2.70;99.90;;;;;;5149669;28;20214;-76
2021/03/01 01:09:26;;;;;;;17.37;8.73;;;2.70;99.90;;;;;;5149503;28;20242;-71
2021/03/01 01:11:58;;;;;;;17.80;9.80;;;2.60;99.90;;;;;;5132201;28;20220;-72
2021/03/01 01:14:29;;;;;;;16.93;8.93;;;2.70;99.90;;;;;;5150496;28;20207;-71
2021/03/01 01:17:01;;;;;;;17.57;9.07;;;2.60;99.90;;;;;;5151746;28;20203;-68
2021/03/01 01:19:33;;;;;;;18.67;9.27;;;2.60;99.90;;;;;;5149833;28;20193;-69
2021/03/01 01:22:05;;;;;;;15.17;8.30;;;2.60;99.90;;;;;;5148584;28;20210;-70
2021/03/01 01:24:36;;;;;;;17.80;8.50;;;2.60;99.90;;;;;;5131160;28;20204;-67
2021/03/01 01:27:09;;;;;;;17.63;9.27;;;2.60;99.90;;;;;;5147304;28;20201;-68
2021/03/01 01:29:40;;;;;;;16.17;8.70;;;2.60;99.90;;;;;;5148161;28;20202;-66
2021/03/01 01:32:12;;;;;;;16.60;8.80;;;2.60;99.90;;;;;;5148845;28;20196;-69
2021/03/01 01:34:43;;;;;;;16.47;8.13;;;2.60;99.90;;;;;;5148648;28;20188;-68
2021/03/01 01:37:15;;;;;;;16.90;8.97;;;2.60;99.90;;;;;;5148020;28;20219;-69
2021/03/01 01:39:46;;;;;;;18.37;9.60;;;2.60;99.90;;;;;;5131533;28;20196;-70
2021/03/01 01:42:18;;;;;;;16.77;8.43;;;2.60;99.90;;;;;;5148490;28;20208;-71
2021/03/01 01:44:49;;;;;;;15.53;8.23;;;2.50;99.90;;;;;;5147954;28;20529;-69
2021/03/01 01:47:21;;;;;;;18.53;8.83;;;2.50;99.90;;;;;;5130843;28;20196;-70
2021/03/01 01:49:52;;;;;;;20.23;9.30;;;2.50;99.90;;;;;;5148081;28;20200;-70
2021/03/01 01:52:24;;;;;;;18.23;8.97;;;2.50;99.90;;;;;;5147759;28;20205;-70
2021/03/01 01:54:56;;;;;;;17.53;9.10;;;2.50;99.90;;;;;;5130856;28;20374;-72
2021/03/01 01:57:28;;;;;;;20.63;10.23;;;2.50;99.90;;;;;;5148482;28;20196;-72
2021/03/01 01:59:59;;;;;;;20.87;9.70;;;2.50;99.90;;;;;;5148240;28;20566;-70
2021/03/01 02:02:32;;;;;;;17.67;10.00;;;2.50;99.90;;;;;;5147871;28;20199;-68
2021/03/01 02:05:07;;;;;;;20.03;9.73;;;2.50;99.90;;;;;;5147394;28;20203;-73
2021/03/01 02:08:07;;;;;;;17.30;9.50;;;2.50;99.90;;;;;;5147773;28;20196;-69
2021/03/01 02:10:55;;;;;;;17.20;9.50;;;2.50;99.90;;;;;;5147187;28;20220;-68
2021/03/01 02:13:48;;;;;;;18.60;9.80;;;2.50;99.90;;;;;;5130569;28;20211;-69
2021/03/01 02:16:34;;;;;;;16.70;9.17;;;2.50;99.90;;;;;;5148087;28;20596;-69
2021/03/01 02:19:07;;;;;;;17.67;8.73;;;2.50;99.90;;;;;;5130894;28;20219;-69
2021/03/01 02:21:45;;;;;;;17.07;8.93;;;2.40;99.90;;;;;;5147650;28;20626;-68
2021/03/01 02:28:16;;;;;;;18.73;9.57;;;2.40;99.90;;;;;;5147000;28;20616;-68
2021/03/01 02:30:52;;;;;;;19.93;9.57;;;2.40;99.90;;;;;;5147089;28;20666;-68
2021/03/01 02:33:34;;;;;;;19.60;9.47;;;2.40;99.90;;;;;;5147213;28;20200;-67
2021/03/01 02:36:13;;;;;;;18.03;9.60;;;2.40;99.90;;;;;;5146999;28;20677;-67
2021/03/01 02:38:48;;;;;;;17.33;9.50;;;2.40;99.90;;;;;;5146720;28;20200;-69
2021/03/01 02:45:15;;;;;;;19.33;9.20;;;2.40;99.90;;;;;;5146762;28;20178;-69
2021/03/01 02:47:47;;;;;;;18.13;9.20;;;2.40;99.90;;;;;;5146990;28;20201;-68
2021/03/01 02:50:21;;;;;;;18.13;9.57;;;2.40;99.90;;;;;;5146578;28;20223;-69
2021/03/01 02:52:54;;;;;;;20.07;9.83;;;2.40;99.90;;;;;;5146786;28;20215;-68
2021/03/01 02:55:26;;;;;;;19.03;9.50;;;2.40;99.90;;;;;;5146784;28;20635;-70
2021/03/01 02:58:13;;;;;;;17.10;9.37;;;2.40;99.90;;;;;;5131585;28;20726;-69
2021/03/01 03:00:45;;;;;;;19.63;10.17;;;2.30;99.90;;;;;;5146698;28;20192;-70
2021/03/01 03:03:17;;;;;;;21.57;9.77;;;2.30;99.90;;;;;;5147787;28;20739;-70
2021/03/01 03:05:50;;;;;;;18.63;9.10;;;2.30;99.90;;;;;;5149830;28;20196;-70
2021/03/01 03:08:22;;;;;;;19.07;9.67;;;2.30;99.90;;;;;;5149391;28;20263;-69
2021/03/01 03:10:54;;;;;;;18.70;9.63;;;2.30;99.90;;;;;;5146356;28;20220;-70
2021/03/01 03:13:26;;;;;;;17.33;9.03;;;2.30;99.90;;;;;;5146660;28;20196;-70
2021/03/01 03:15:59;;;;;;;19.63;9.10;;;2.30;99.90;;;;;;5146654;28;20215;-69
2021/03/01 03:18:31;;;;;;;16.90;9.30;;;2.30;99.90;;;;;;5146586;28;20612;-69
2021/03/01 03:21:03;;;;;;;18.27;9.27;;;2.30;99.90;;;;;;5129517;28;20193;-69
2021/03/01 03:23:35;;;;;;;17.63;9.33;;;2.30;99.90;;;;;;5149849;28;20204;-70
2021/03/01 03:26:07;;;;;;;18.47;9.83;;;2.30;99.90;;;;;;5150968;28;20226;-70
2021/03/01 03:28:38;;;;;;;19.47;9.90;;;2.30;99.90;;;;;;5150388;28;20192;-73
2021/03/01 03:31:11;;;;;;;20.63;9.83;;;2.30;99.90;;;;;;5149837;28;20307;-70
2021/03/01 03:33:43;;;;;;;17.33;9.30;;;2.30;99.90;;;;;;5130004;28;20197;-69
2021/03/01 03:36:15;;;;;;;19.83;10.07;;;2.30;99.90;;;;;;5146985;28;20200;-70
2021/03/01 03:38:50;;;;;;;17.63;9.17;;;2.30;99.90;;;;;;5148751;28;20635;-72
2021/03/01 03:41:23;;;;;;;19.00;10.23;;;2.30;99.90;;;;;;5147490;28;20212;-72
2021/03/01 03:43:55;;;;;;;23.17;9.90;;;2.20;99.90;;;;;;5147903;28;20197;-71
2021/03/01 03:46:28;;;;;;;19.97;10.17;;;2.20;99.90;;;;;;5146461;28;20200;-71
2021/03/01 03:49:01;;;;;;;22.77;11.03;;;2.20;99.90;;;;;;5146917;28;20553;-70
2021/03/01 03:51:34;;;;;;;25.63;11.40;;;2.20;99.90;;;;;;5133224;28;20228;-72
2021/03/01 03:58:11;;;;;;;21.47;9.30;;;2.20;99.90;;;;;;5149963;28;20164;-70
2021/03/01 04:00:44;;;;;;;23.23;9.60;;;2.20;99.90;;;;;;5149792;28;20196;-69
2021/03/01 04:03:18;;;;;;;19.87;9.27;;;2.20;99.90;;;;;;5149667;28;20195;-71
2021/03/01 04:05:52;;;;;;;20.07;10.17;;;2.20;99.90;;;;;;5150044;28;20631;-71
2021/03/01 04:08:28;;;;;;;22.20;9.80;;;2.20;99.90;;;;;;5149963;28;20251;-71
2021/03/01 04:15:23;;;;;;;23.80;9.50;;;2.20;99.90;;;;;;5150339;28;20627;-69
2021/03/01 04:17:56;;;;;;;24.90;10.37;;;2.10;99.90;;;;;;5150096;28;20189;-69
2021/03/01 04:20:28;;;;;;;19.40;9.80;;;2.10;99.90;;;;;;5150605;28;20192;-71
2021/03/01 04:23:01;;;;;;;22.50;9.40;;;2.10;99.90;;;;;;5150002;28;20550;-68
2021/03/01 04:25:33;;;;;;;30.00;9.90;;;2.10;99.90;;;;;;5149586;28;20199;-69
2021/03/01 04:28:05;;;;;;;20.23;9.97;;;2.00;99.90;;;;;;5149744;28;20200;-70
2021/03/01 04:30:37;;;;;;;26.93;10.20;;;2.00;99.90;;;;;;5150078;28;20577;-72
2021/03/01 04:33:11;;;;;;;21.37;10.40;;;2.10;99.90;;;;;;5150746;28;20200;-69
2021/03/01 04:35:45;;;;;;;20.53;10.20;;;2.10;99.90;;;;;;5150697;28;20203;-72
2021/03/01 04:38:17;;;;;;;20.83;9.23;;;2.00;99.90;;;;;;5149953;28;20200;-71
2021/03/01 04:40:53;;;;;;;30.77;10.27;;;2.10;99.90;;;;;;5132446;28;20550;-73
2021/03/01 04:43:27;;;;;;;25.70;9.80;;;2.10;99.90;;;;;;5132043;28;20200;-70
2021/03/01 04:46:00;;;;;;;18.83;8.93;;;2.10;99.90;;;;;;5148878;28;20196;-69
2021/03/01 04:48:32;;;;;;;19.00;10.40;;;2.10;99.90;;;;;;5148888;28;20193;-70
2021/03/01 04:51:04;;;;;;;18.77;9.50;;;2.10;99.90;;;;;;5148683;28;20777;-70
2021/03/01 04:53:36;;;;;;;19.77;9.50;;;2.10;99.90;;;;;;5131868;28;20196;-70
2021/03/01 04:56:09;;;;;;;21.97;10.17;;;2.10;99.90;;;;;;5148903;28;20226;-71
2021/03/01 04:58:42;;;;;;;19.93;9.77;;;2.10;99.90;;;;;;5148632;28;20196;-71
2021/03/01 05:01:15;;;;;;;22.50;9.87;;;2.10;99.90;;;;;;5148313;28;20243;-70
2021/03/01 05:03:48;;;;;;;17.60;8.83;;;2.10;99.90;;;;;;5148599;28;20201;-71
2021/03/01 05:06:22;;;;;;;19.43;9.57;;;2.10;99.90;;;;;;5148347;28;20243;-72
2021/03/01 05:08:54;;;;;;;19.33;9.83;;;2.10;99.90;;;;;;5148340;28;20334;-72
2021/03/01 05:11:36;;;;;;;20.87;9.60;;;2.10;99.90;;;;;;5148137;28;20310;-71
2021/03/01 05:14:08;;;;;;;18.30;8.27;;;2.10;99.90;;;;;;5148591;28;20199;-70
2021/03/01 05:16:40;;;;;;;18.57;9.17;;;2.10;99.90;;;;;;5147980;28;20203;-70
2021/03/01 05:19:12;;;;;;;22.07;10.43;;;2.10;99.90;;;;;;5148023;28;20200;-72
2021/03/01 05:21:43;;;;;;;19.97;9.83;;;2.10;99.90;;;;;;5148334;28;20196;-69
2021/03/01 05:24:14;;;;;;;25.77;10.97;;;2.10;99.90;;;;;;5148308;28;20302;-68
2021/03/01 05:26:46;;;;;;;24.43;11.77;;;2.00;99.90;;;;;;5148097;28;20196;-70
2021/03/01 05:29:17;;;;;;;21.97;11.50;;;2.00;99.90;;;;;;5148356;28;20221;-69
2021/03/01 05:31:49;;;;;;;20.20;10.67;;;2.00;99.90;;;;;;5148467;28;20223;-73
2021/03/01 05:34:20;;;;;;;22.60;10.63;;;2.00;99.90;;;;;;5131401;28;20284;-76
2021/03/01 05:36:52;;;;;;;23.77;11.83;;;2.00;99.90;;;;;;5148950;28;20201;-75
2021/03/01 05:43:23;;;;;;;24.30;11.37;;;2.00;99.90;;;;;;5148922;28;20176;-73
2021/03/01 05:45:58;;;;;;;21.67;10.70;;;2.00;99.90;;;;;;5148963;28;20218;-72
2021/03/01 05:48:29;;;;;;;22.27;11.23;;;2.00;99.90;;;;;;5151968;28;20196;-75
2021/03/01 05:51:03;;;;;;;25.57;12.30;;;2.00;99.90;;;;;;5151279;28;20220;-75
2021/03/01 05:53:39;;;;;;;28.10;12.57;;;2.00;99.90;;;;;;5152150;28;20197;-72
2021/03/01 06:00:08;;;;;;;33.37;13.87;;;2.10;99.90;;;;;;5151942;28;20179;-75
2021/03/01 06:02:42;;;;;;;28.80;13.17;;;2.10;99.90;;;;;;5154167;28;20554;-73
2021/03/01 06:05:17;;;;;;;35.30;13.20;;;2.00;99.90;;;;;;5149514;28;20200;-74
2021/03/01 06:07:50;;;;;;;30.13;13.83;;;2.10;99.90;;;;;;5149118;28;20208;-77
2021/03/01 06:10:22;;;;;;;34.20;14.40;;;2.10;99.90;;;;;;5148776;28;20271;-76
2021/03/01 06:12:53;;;;;;;30.10;13.10;;;2.10;99.90;;;;;;5148329;28;20193;-75
2021/03/01 06:15:26;;;;;;;35.47;14.87;;;2.10;99.90;;;;;;5147660;28;20623;-78
2021/03/01 06:18:09;;;;;;;36.90;14.10;;;2.10;99.90;;;;;;5147287;28;20196;-78
2021/03/01 06:20:42;;;;;;;38.77;14.23;;;2.10;99.90;;;;;;5147514;28;20188;-77
2021/03/01 06:23:32;;;;;;;34.77;14.47;;;2.10;99.90;;;;;;5148013;28;20203;-77
2021/03/01 06:26:30;;;;;;;35.00;15.07;;;2.10;99.90;;;;;;5148060;28;20189;-77
2021/03/01 06:29:06;;;;;;;38.13;15.80;;;2.20;99.90;;;;;;5147711;28;20621;-77
2021/03/01 06:31:48;;;;;;;39.80;16.10;;;2.20;99.90;;;;;;5148139;28;20219;-71
2021/03/01 06:34:33;;;;;;;33.93;15.67;;;2.20;99.90;;;;;;5148849;28;20206;-72
2021/03/01 06:37:16;;;;;;;28.50;12.73;;;2.30;99.90;;;;;;5150819;28;20204;-72
2021/03/01 06:43:56;;;;;;;28.40;13.07;;;2.40;99.90;;;;;;5153410;28;20176;-77
2021/03/01 06:46:30;;;;;;;31.67;14.10;;;2.40;99.90;;;;;;5151612;28;20196;-76
2021/03/01 06:49:19;;;;;;;29.43;14.30;;;2.50;99.90;;;;;;5140071;28;20218;-73
2021/03/01 06:51:51;;;;;;;31.47;14.83;;;2.50;99.90;;;;;;5144258;28;20224;-70
2021/03/01 06:54:26;;;;;;;33.03;15.33;;;2.60;99.90;;;;;;5127824;28;20203;-71
2021/03/01 07:00:44;;;;;;;28.10;13.63;;;2.70;99.90;;;;;;5145691;28;20183;-71
2021/03/01 07:03:21;;;;;;;31.37;15.07;;;2.80;99.90;;;;;;5130245;28;20577;-70
2021/03/01 07:05:55;;;;;;;25.03;13.13;;;2.80;99.90;;;;;;5143743;28;20196;-74
2021/03/01 07:08:33;;;;;;;22.97;11.90;;;2.80;99.90;;;;;;5145241;28;20247;-72
2021/03/01 07:11:25;;;;;;;28.07;13.07;;;2.90;99.90;;;;;;5146414;28;20220;-70
2021/03/01 07:14:06;;;;;;;22.77;11.83;;;2.90;99.90;;;;;;5128185;28;20223;-70
2021/03/01 07:16:42;;;;;;;25.47;12.63;;;2.90;99.90;;;;;;5144919;28;20200;-71
2021/03/01 07:19:24;;;;;;;22.80;12.50;;;3.00;99.90;;;;;;5144599;28;20251;-69
2021/03/01 07:22:03;;;;;;;25.07;12.40;;;3.10;99.90;;;;;;5128081;28;20192;-72
2021/03/01 07:24:35;;;;;;;24.20;12.40;;;3.20;99.90;;;;;;5146394;28;20270;-73
2021/03/01 07:27:09;;;;;;;28.37;12.13;;;3.20;99.90;;;;;;5148515;28;20241;-75
2021/03/01 07:29:45;;;;;;;23.43;11.90;;;3.30;99.90;;;;;;5133887;28;20566;-76
2021/03/01 07:32:21;;;;;;;21.17;11.63;;;3.40;99.90;;;;;;5151984;28;20223;-69
2021/03/01 07:34:53;;;;;;;21.90;11.67;;;3.50;99.90;;;;;;5159150;28;20223;-70
2021/03/01 07:37:25;;;;;;;23.33;12.27;;;3.50;99.90;;;;;;5141997;28;20220;-71
2021/03/01 07:43:43;;;;;;;21.63;11.70;;;3.80;99.90;;;;;;5163318;28;20192;-76
2021/03/01 07:46:15;;;;;;;20.07;11.70;;;3.90;99.90;;;;;;5137133;28;20192;-72
2021/03/01 07:48:47;;;;;;;21.57;12.33;;;4.00;99.90;;;;;;5148754;28;20551;-74
2021/03/01 07:51:42;;;;;;;23.70;12.37;;;4.10;99.90;;;;;;5152010;28;20686;-76
2021/03/01 07:54:18;;;;;;;22.63;11.97;;;4.20;99.90;;;;;;5150894;28;20212;-76
2021/03/01 08:00:35;;;;;;;23.50;11.47;;;4.30;99.90;;;;;;5150135;28;20330;-75
2021/03/01 08:03:35;;;;;;;21.87;12.13;;;4.30;99.90;;;;;;5149562;28;20227;-77
2021/03/01 08:06:08;;;;;;;23.20;14.23;;;4.40;99.90;;;;;;5137710;28;20442;-72
2021/03/01 08:08:42;;;;;;;19.57;10.53;;;4.60;99.90;;;;;;5147770;28;20478;-72
2021/03/01 08:11:15;;;;;;;20.77;11.97;;;4.80;99.90;;;;;;5148653;28;20282;-72
2021/03/01 08:13:47;;;;;;;20.43;11.17;;;4.90;99.90;;;;;;5147804;28;20300;-70
2021/03/01 08:16:23;;;;;;;19.60;11.33;;;4.90;99.90;;;;;;5132056;28;20599;-71
2021/03/01 08:18:57;;;;;;;20.80;11.63;;;5.00;99.90;;;;;;5148111;28;20207;-72
2021/03/01 08:22:02;;;;;;;17.97;10.83;;;5.00;99.90;;;;;;5131284;28;20200;-70
2021/03/01 08:24:54;;;;;;;19.00;10.83;;;5.20;99.90;;;;;;5148985;28;20192;-71
2021/03/01 08:27:25;;;;;;;21.93;11.30;;;5.20;99.90;;;;;;5148874;28;20630;-71
2021/03/01 08:30:16;;;;;;;20.93;11.23;;;5.20;99.90;;;;;;5146884;28;20207;-73
2021/03/01 08:33:13;;;;;;;21.10;11.80;;;5.30;99.90;;;;;;5146426;28;20323;-72
2021/03/01 08:36:13;;;;;;;19.83;11.43;;;5.40;99.90;;;;;;5147152;28;20614;-69
2021/03/01 08:38:46;;;;;;;19.00;11.93;;;5.40;99.90;;;;;;5128741;28;20223;-71
2021/03/01 08:45:04;;;;;;;23.70;12.70;;;5.60;99.90;;;;;;5146910;28;20208;-73
2021/03/01 08:47:48;;;;;;;18.50;11.37;;;5.80;99.90;;;;;;5140227;28;20295;-71
2021/03/01 08:50:22;;;;;;;20.37;11.03;;;5.80;99.90;;;;;;5147390;28;20674;-72
2021/03/01 08:53:18;;;;;;;18.00;10.70;;;5.90;99.90;;;;;;5146580;28;20228;-76
2021/03/01 08:55:50;;;;;;;17.87;10.47;;;5.80;99.90;;;;;;5101476;28;20218;-75
2021/03/01 08:58:23;;;;;;;18.60;10.67;;;6.00;99.90;;;;;;5114228;28;20633;-72
2021/03/01 09:01:00;;;;;;;18.17;10.63;;;6.10;99.90;;;;;;5144940;28;20272;-75
2021/03/01 09:03:37;;;;;;;19.17;10.97;;;6.30;99.90;;;;;;5144759;28;20197;-73
2021/03/01 09:06:22;;;;;;;17.77;10.07;;;6.40;99.90;;;;;;5145039;28;20591;-74
2021/03/01 09:08:56;;;;;;;19.43;9.90;;;6.60;99.90;;;;;;5148138;28;20240;-71
2021/03/01 09:11:30;;;;;;;16.80;10.57;;;6.60;99.90;;;;;;5148363;28;20239;-76
2021/03/01 09:14:06;;;;;;;16.03;9.87;;;6.60;99.90;;;;;;5150032;28;20300;-78
2021/03/01 09:16:42;;;;;;;17.43;10.40;;;6.50;99.90;;;;;;5149240;28;20251;-73
2021/03/01 09:19:15;;;;;;;16.57;9.80;;;6.40;99.90;;;;;;5130877;28;20234;-73
2021/03/01 09:21:56;;;;;;;16.87;9.57;;;6.40;99.90;;;;;;5131403;28;20200;-74
2021/03/01 09:24:30;;;;;;;18.90;10.53;;;6.40;99.90;;;;;;5149577;28;20628;-76
2021/03/01 09:27:02;;;;;;;18.90;9.97;;;6.40;99.90;;;;;;5149832;28;20188;-74
2021/03/01 09:29:34;;;;;;;16.13;9.80;;;6.40;99.90;;;;;;5149399;28;20227;-80
2021/03/01 09:32:07;;;;;;;17.83;10.33;;;6.50;99.90;;;;;;5148652;28;20228;-77
2021/03/01 09:34:39;;;;;;;16.60;10.47;;;6.50;99.90;;;;;;5131439;28;20283;-77
2021/03/01 09:37:14;;;;;;;18.73;10.47;;;6.50;99.90;;;;;;5148715;28;20282;-77
2021/03/01 09:39:45;;;;;;;16.33;9.67;;;6.50;99.90;;;;;;5130444;28;20530;-81
2021/03/01 09:42:20;;;;;;;13.00;9.23;;;6.50;99.90;;;;;;5147761;28;20200;-76
2021/03/01 09:44:52;;;;;;;16.43;9.20;;;6.50;99.90;;;;;;5147644;28;20195;-80
2021/03/01 09:47:24;;;;;;;20.07;9.73;;;6.50;99.90;;;;;;5145116;28;20200;-78
2021/03/01 09:49:56;;;;;;;15.93;9.90;;;6.60;99.90;;;;;;5147484;28;20204;-75
2021/03/01 09:52:28;;;;;;;14.93;8.93;;;6.70;99.90;;;;;;5146256;28;20231;-74
2021/03/01 09:54:59;;;;;;;17.33;9.63;;;6.80;99.90;;;;;;5146024;28;20196;-73
2021/03/01 09:57:31;;;;;;;19.50;10.37;;;6.80;99.90;;;;;;5143261;28;20208;-70
2021/03/01 10:00:25;;;;;;;17.50;10.33;;;6.90;99.90;;;;;;5145650;28;20288;-73
2021/03/01 10:03:00;;;;;;;17.17;9.67;;;7.10;99.90;;;;;;5128771;28;20196;-69
2021/03/01 10:05:33;;;;;;;15.20;9.67;;;7.20;99.90;;;;;;5096075;28;20200;-71
2021/03/01 10:08:06;;;;;;;16.40;9.10;;;7.20;99.90;;;;;;5145755;28;20243;-70
2021/03/01 10:15:00;;;;;;;14.67;8.80;;;7.30;99.90;;;;;;5145864;28;20181;-71
2021/03/01 10:17:33;;;;;;;16.47;9.50;;;7.40;99.90;;;;;;5145489;28;20199;-72
2021/03/01 10:20:10;;;;;;;16.90;9.70;;;7.40;99.90;;;;;;5145829;28;20553;-72
2021/03/01 10:23:01;;;;;;;20.80;10.00;;;7.40;99.90;;;;;;5144367;28;20275;-72
2021/03/01 10:25:36;;;;;;;15.27;8.93;;;7.50;99.90;;;;;;5145131;28;20608;-72
2021/03/01 10:28:30;;;;;;;14.90;9.63;;;7.50;99.90;;;;;;5128652;28;20570;-72
2021/03/01 10:31:10;;;;;;;19.27;10.37;;;7.60;99.90;;;;;;5144229;28;20220;-72
2021/03/01 10:33:56;;;;;;;21.00;9.93;;;7.60;99.90;;;;;;5145214;28;20197;-70
2021/03/01 10:36:33;;;;;;;16.33;10.13;;;7.60;99.90;;;;;;5144618;28;20199;-71
2021/03/01 10:39:24;;;;;;;16.03;9.43;;;7.70;99.90;;;;;;5145055;28;20188;-71
2021/03/01 10:42:11;;;;;;;16.33;10.20;;;7.80;99.90;;;;;;5093237;28;20571;-71
2021/03/01 10:44:54;;;;;;;17.57;9.87;;;7.80;99.90;;;;;;5129649;28;20683;-72
2021/03/01 10:47:34;;;;;;;16.87;10.17;;;7.90;99.90;;;;;;5127518;28;20694;-71
2021/03/01 10:50:21;;;;;;;15.17;9.30;;;7.90;99.90;;;;;;5147058;28;20283;-74
2021/03/01 10:52:53;;;;;;;15.57;9.80;;;8.00;99.90;;;;;;5146413;28;20271;-71
2021/03/01 10:55:25;;;;;;;18.20;10.13;;;8.10;99.90;;;;;;5146407;28;20260;-71
2021/03/01 10:57:56;;;;;;;16.10;9.70;;;8.20;99.90;;;;;;5129887;28;20193;-71
2021/03/01 11:00:28;;;;;;;18.45;11.60;;;8.20;99.90;;;;;;5145076;28;20435;-68
2021/03/01 11:02:59;;;;;;;14.87;9.80;;;8.30;99.90;;;;;;5143342;28;20199;-69
2021/03/01 11:05:31;;;;;;;14.47;9.90;;;8.40;99.90;;;;;;5145300;28;20565;-72
2021/03/01 11:08:21;;;;;;;19.60;10.40;;;8.40;99.90;;;;;;5129841;28;20302;-73
2021/03/01 11:15:17;;;;;;;18.70;9.27;;;8.50;99.90;;;;;;5152651;28;20180;-76
2021/03/01 11:17:49;;;;;;;17.50;9.87;;;8.50;99.90;;;;;;5151622;28;20203;-70
2021/03/01 11:20:21;;;;;;;16.63;9.80;;;8.50;99.90;;;;;;5145867;28;20196;-73
2021/03/01 11:22:57;;;;;;;15.57;9.57;;;8.60;99.90;;;;;;5145672;28;20518;-72
2021/03/01 11:25:31;;;;;;;17.87;10.37;;;8.60;99.90;;;;;;5145259;28;20200;-74
2021/03/01 11:32:03;;;;;;;17.90;8.93;;;8.70;99.90;;;;;;5145260;28;20220;-75
2021/03/01 11:34:38;;;;;;;13.93;9.07;;;8.80;99.90;;;;;;5145335;28;20203;-78
2021/03/01 11:37:10;;;;;;;14.73;9.37;;;8.80;99.90;;;;;;5145094;28;20199;-74
2021/03/01 11:39:41;;;;;;;16.10;9.00;;;8.90;99.90;;;;;;5145058;28;20196;-73
2021/03/01 11:42:15;;;;;;;18.23;8.80;;;9.00;99.90;;;;;;5127420;28;20203;-73
2021/03/01 11:44:47;;;;;;;18.63;9.80;;;9.00;99.90;;;;;;5144513;28;20215;-71
2021/03/01 11:47:18;;;;;;;15.70;9.43;;;9.10;99.90;;;;;;5145006;28;20200;-72
2021/03/01 11:49:50;;;;;;;19.73;9.93;;;9.30;99.90;;;;;;5145093;28;20537;-72
2021/03/01 11:52:21;;;;;;;13.37;9.07;;;9.30;99.90;;;;;;5144364;28;20227;-73
2021/03/01 11:54:53;;;;;;;16.73;8.80;;;9.40;99.90;;;;;;5144908;28;20224;-73
2021/03/01 11:57:28;;;;;;;16.67;9.10;;;9.40;99.90;;;;;;5144746;28;20205;-71
2021/03/01 12:00:00;;;;;;;15.63;9.40;;;9.50;99.90;;;;;;5127766;28;20655;-70
2021/03/01 12:02:31;;;;;;;15.57;8.87;;;9.50;99.90;;;;;;5127555;28;20287;-74
2021/03/01 12:05:04;;;;;;;14.20;8.97;;;9.50;99.90;;;;;;5144805;28;20196;-70
2021/03/01 12:07:36;;;;;;;14.67;8.47;;;9.60;99.90;;;;;;5127988;28;20220;-71
2021/03/01 12:10:08;;;;;;;16.87;8.60;;;9.70;99.90;;;;;;5145388;28;20240;-72
2021/03/01 12:12:41;;;;;;;15.13;9.17;;;9.70;99.90;;;;;;5148826;28;20263;-70
2021/03/01 12:15:12;;;;;;;16.00;8.60;;;9.80;99.90;;;;;;5149419;28;20203;-69
2021/03/01 12:17:44;;;;;;;17.87;9.00;;;9.90;99.90;;;;;;5149856;28;20203;-71
2021/03/01 12:20:16;;;;;;;13.33;9.13;;;10.00;99.90;;;;;;5150611;28;20196;-73
2021/03/01 12:22:49;;;;;;;12.43;7.77;;;10.20;99.90;;;;;;5149788;28;20330;-76
2021/03/01 12:25:20;;;;;;;17.00;8.93;;;10.20;99.90;;;;;;5149902;28;20196;-70
2021/03/01 12:27:53;;;;;;;13.33;8.30;;;10.10;99.90;;;;;;5149423;28;20203;-71
2021/03/01 12:30:24;;;;;;;19.03;9.43;;;10.10;99.90;;;;;;5149733;28;20200;-71
2021/03/01 12:33:08;;;;;;;13.67;8.13;;;10.10;99.90;;;;;;5134087;28;20220;-72
2021/03/01 12:35:40;;;;;;;13.50;7.30;;;10.10;99.90;;;;;;5132567;28;20188;-75
2021/03/01 12:38:12;;;;;;;13.40;7.70;;;10.10;99.90;;;;;;5132032;28;20348;-68
2021/03/01 12:40:43;;;;;;;15.40;8.87;;;10.10;99.90;;;;;;5147953;28;20192;-71
2021/03/01 12:43:16;;;;;;;13.30;7.20;;;10.00;99.90;;;;;;5144935;28;20208;-67
2021/03/01 12:45:48;;;;;;;11.87;6.37;;;10.10;99.90;;;;;;5147511;28;20207;-69
2021/03/01 12:48:19;;;;;;;10.27;6.30;;;10.00;99.90;;;;;;5147660;28;20197;-71
2021/03/01 12:50:51;;;;;;;12.40;6.60;;;10.00;99.90;;;;;;5146965;28;20614;-70
2021/03/01 12:53:23;;;;;;;12.57;6.40;;;10.10;99.90;;;;;;5147922;28;20203;-74
2021/03/01 12:55:54;;;;;;;14.30;7.07;;;10.30;99.90;;;;;;5148250;28;20338;-70
2021/03/01 12:58:26;;;;;;;10.10;5.93;;;10.40;99.90;;;;;;5131003;28;20204;-72
2021/03/01 13:00:57;;;;;;;10.00;5.87;;;10.40;99.90;;;;;;5147463;28;20211;-71
2021/03/01 13:03:40;;;;;;;9.67;5.37;;;10.50;99.90;;;;;;5147661;28;20206;-70
2021/03/01 13:06:13;;;;;;;8.80;5.60;;;10.40;99.90;;;;;;5146050;28;20195;-71
2021/03/01 13:08:45;;;;;;;10.47;5.83;;;10.40;99.90;;;;;;5147969;28;20232;-69
2021/03/01 13:11:18;;;;;;;9.60;5.83;;;10.20;99.90;;;;;;5147949;28;20219;-69
2021/03/01 13:13:50;;;;;;;10.63;6.57;;;10.20;99.90;;;;;;5147977;28;20291;-73
2021/03/01 13:16:22;;;;;;;10.43;6.40;;;10.30;99.90;;;;;;5147796;28;20283;-72
2021/03/01 13:18:54;;;;;;;11.80;6.47;;;10.20;99.90;;;;;;5130302;28;20235;-70
2021/03/01 13:21:25;;;;;;;10.10;6.30;;;10.20;99.90;;;;;;5147307;28;20192;-70
2021/03/01 13:23:59;;;;;;;14.83;6.60;;;10.20;99.90;;;;;;5147370;28;20287;-71
2021/03/01 13:26:30;;;;;;;11.53;5.80;;;10.20;99.90;;;;;;5129611;28;20246;-68
2021/03/01 13:29:02;;;;;;;12.17;5.50;;;10.20;99.90;;;;;;5146736;28;20224;-72
2021/03/01 13:31:34;;;;;;;11.67;6.07;;;10.40;99.90;;;;;;5144532;28;20248;-70
2021/03/01 13:34:05;;;;;;;10.33;5.57;;;10.50;99.90;;;;;;5146995;28;20267;-76
2021/03/01 13:36:37;;;;;;;12.80;7.13;;;10.60;99.90;;;;;;5145257;28;20196;-69
2021/03/01 13:39:09;;;;;;;11.73;6.30;;;10.80;99.90;;;;;;5064789;29;20242;-68
2021/03/01 13:45:04;;;;;;;12.00;6.43;;;10.90;99.90;;;;;;5063564;29;20495;-73
2021/03/01 13:47:36;;;;;;;9.73;5.27;;;11.00;99.90;;;;;;5065190;29;20210;-74
2021/03/01 13:50:12;;;;;;;11.37;5.30;;;11.00;99.90;;;;;;5064105;29;20661;-73
2021/03/01 13:52:44;;;;;;;14.00;6.00;;;10.80;99.90;;;;;;5045887;29;20632;-74
2021/03/01 13:55:16;;;;;;;12.15;6.18;;;10.50;99.90;;;;;;5063903;29;20445;-73
2021/03/01 14:01:44;;;;;;;12.27;5.30;;;10.80;99.90;;;;;;5146554;28;20168;-74
2021/03/01 14:04:16;;;;;;;10.10;5.77;;;10.70;99.90;;;;;;5145690;28;20192;-73
2021/03/01 14:06:48;;;;;;;8.40;5.03;;;10.40;99.90;;;;;;5145267;28;20200;-73
2021/03/01 14:09:24;;;;;;;11.23;5.30;;;10.30;99.90;;;;;;5147265;28;20278;-74
2021/03/01 14:11:55;;;;;;;11.67;5.23;;;10.10;99.90;;;;;;5149554;28;20224;-74
2021/03/01 14:18:23;;;;;;;12.77;6.00;;;9.70;99.90;;;;;;5149174;28;20666;-70
2021/03/01 14:20:54;;;;;;;11.90;5.57;;;9.60;99.90;;;;;;5148891;28;20228;-72
2021/03/01 14:23:26;;;;;;;10.73;5.83;;;9.50;99.90;;;;;;5146625;28;20196;-73
2021/03/01 14:25:58;;;;;;;8.47;5.07;;;9.40;99.90;;;;;;5147957;28;20204;-74
2021/03/01 14:28:29;;;;;;;10.03;5.27;;;9.30;99.90;;;;;;5147346;28;20200;-71
2021/03/01 14:31:01;;;;;;;9.90;5.37;;;9.20;99.90;;;;;;5147104;28;20640;-75
2021/03/01 14:33:33;;;;;;;12.27;5.67;;;9.20;99.90;;;;;;5146443;28;20201;-72
2021/03/01 14:36:05;;;;;;;8.83;5.30;;;9.20;99.90;;;;;;5145708;28;20207;-72